createdAt,value
2018-09-16T00:00:29.061Z,99.90
2018-09-16T00:02:58.491Z,99.90
2018-09-16T00:05:27.959Z,99.90
2018-09-16T00:07:57.287Z,99.90
2018-09-16T00:10:27.696Z,99.90
2018-09-16T00:12:57.138Z,99.90
2018-09-16T00:15:26.811Z,99.90
2018-09-16T00:17:56.289Z,99.90
2018-09-16T00:20:25.622Z,99.90
2018-09-16T00:22:55.276Z,99.90
2018-09-16T00:25:24.612Z,99.90
2018-09-16T00:27:54.219Z,99.90
2018-09-16T00:30:23.514Z,99.90
2018-09-16T00:32:52.786Z,99.90
2018-09-16T00:35:22.210Z,99.90
2018-09-16T00:37:51.495Z,99.90
2018-09-16T00:40:20.765Z,99.90
2018-09-16T00:42:50.066Z,99.90
2018-09-16T00:45:19.525Z,99.90
2018-09-16T00:47:48.953Z,99.90
2018-09-16T00:50:18.270Z,99.90
2018-09-16T00:52:47.707Z,99.90
2018-09-16T00:55:17.754Z,99.90
2018-09-16T00:57:47.038Z,99.90
2018-09-16T01:00:16.326Z,99.90
2018-09-16T01:02:45.671Z,99.90
2018-09-16T01:05:15.091Z,99.90
2018-09-16T01:07:44.441Z,99.90
2018-09-16T01:10:13.788Z,99.90
2018-09-16T01:12:43.131Z,99.90
2018-09-16T01:15:12.443Z,99.90
2018-09-16T01:17:41.862Z,99.90
2018-09-16T01:20:11.174Z,99.90
2018-09-16T01:22:40.691Z,99.90
2018-09-16T01:25:10.059Z,99.90
2018-09-16T01:27:39.486Z,99.90
2018-09-16T01:30:08.885Z,99.90
2018-09-16T01:32:38.256Z,99.90
2018-09-16T01:35:08.359Z,99.90
2018-09-16T01:37:42.974Z,99.90
2018-09-16T01:40:12.464Z,99.90
2018-09-16T01:42:41.732Z,99.90
2018-09-16T01:45:11.003Z,99.90
2018-09-16T01:47:40.303Z,99.90
2018-09-16T01:50:09.624Z,99.90
2018-09-16T01:52:39.072Z,99.90
2018-09-16T01:55:08.389Z,99.90
2018-09-16T01:57:37.717Z,99.90
2018-09-16T02:00:07.956Z,99.90
2018-09-16T02:02:37.491Z,99.90
2018-09-16T02:05:06.986Z,99.90
2018-09-16T02:07:36.344Z,99.90
2018-09-16T02:10:05.644Z,99.90
2018-09-16T02:12:35.125Z,99.90
2018-09-16T02:15:04.485Z,99.90
2018-09-16T02:17:34.013Z,99.90
2018-09-16T02:20:03.396Z,99.90
2018-09-16T02:22:32.644Z,99.90
2018-09-16T02:25:02.036Z,99.90
2018-09-16T02:27:31.322Z,99.90
2018-09-16T02:30:01.183Z,99.90
2018-09-16T02:32:30.481Z,99.90
2018-09-16T02:34:59.775Z,99.90
2018-09-16T02:37:29.113Z,99.90
2018-09-16T02:39:58.753Z,99.90
2018-09-16T02:42:28.167Z,99.90
2018-09-16T02:44:57.532Z,99.90
2018-09-16T02:47:27.037Z,99.90
2018-09-16T02:49:56.502Z,99.90
2018-09-16T02:52:25.941Z,99.90
2018-09-16T02:54:55.296Z,99.90
2018-09-16T02:57:24.633Z,99.90
2018-09-16T02:59:53.984Z,99.90
2018-09-16T03:02:23.278Z,99.90
2018-09-16T03:04:52.705Z,99.90
2018-09-16T03:07:22.059Z,99.90
2018-09-16T03:09:51.359Z,99.90
2018-09-16T03:12:20.453Z,99.90
2018-09-16T03:14:49.554Z,99.90
2018-09-16T03:17:19.277Z,99.90
2018-09-16T03:19:49.645Z,99.90
2018-09-16T03:22:18.909Z,99.90
2018-09-16T03:24:48.175Z,99.90
2018-09-16T03:27:17.492Z,99.90
2018-09-16T03:29:46.807Z,99.90
2018-09-16T03:32:16.149Z,99.90
2018-09-16T03:34:45.440Z,99.90
2018-09-16T03:37:14.746Z,99.90
2018-09-16T03:39:44.153Z,99.90
2018-09-16T03:42:13.403Z,99.90
2018-09-16T03:44:42.722Z,99.90
2018-09-16T03:47:12.122Z,99.90
2018-09-16T03:49:41.496Z,99.90
2018-09-16T03:52:10.899Z,99.90
2018-09-16T03:54:40.198Z,99.90
2018-09-16T03:57:09.583Z,99.90
2018-09-16T03:59:38.986Z,99.90
2018-09-16T04:02:08.357Z,99.90
2018-09-16T04:04:37.695Z,99.90
2018-09-16T04:07:07.111Z,99.90
2018-09-16T04:09:36.518Z,99.90
2018-09-16T04:12:06.004Z,99.90
2018-09-16T04:14:35.300Z,99.90
2018-09-16T04:17:04.773Z,99.90
2018-09-16T04:19:34.209Z,99.90
2018-09-16T04:22:03.505Z,99.90
2018-09-16T04:24:33.489Z,99.90
2018-09-16T04:27:02.852Z,99.90
2018-09-16T04:29:32.255Z,99.90
2018-09-16T04:32:01.767Z,99.90
2018-09-16T04:34:31.104Z,99.90
2018-09-16T04:37:00.404Z,99.90
2018-09-16T04:39:29.843Z,99.90
2018-09-16T04:41:59.127Z,99.90
2018-09-16T04:44:28.397Z,99.90
2018-09-16T04:46:57.716Z,99.90
2018-09-16T04:49:27.080Z,99.90
2018-09-16T04:51:56.491Z,99.90
2018-09-16T04:54:25.923Z,99.90
2018-09-16T04:56:55.276Z,99.90
2018-09-16T04:59:24.730Z,99.90
2018-09-16T05:01:54.039Z,99.90
2018-09-16T05:04:23.391Z,99.90
2018-09-16T05:06:52.744Z,99.90
2018-09-16T05:09:22.044Z,99.90
2018-09-16T05:11:51.575Z,99.90
2018-09-16T05:14:20.928Z,99.90
2018-09-16T05:16:50.958Z,99.90
2018-09-16T05:19:20.263Z,99.90
2018-09-16T05:21:49.814Z,99.90
2018-09-16T05:24:19.171Z,99.90
2018-09-16T05:26:48.534Z,99.90
2018-09-16T05:29:18.036Z,99.90
2018-09-16T05:31:47.418Z,99.90
2018-09-16T05:34:16.741Z,99.90
2018-09-16T05:36:46.067Z,99.90
2018-09-16T05:39:15.350Z,99.90
2018-09-16T05:41:44.770Z,99.90
2018-09-16T05:44:14.239Z,99.90
2018-09-16T05:46:43.592Z,99.90
2018-09-16T05:49:13.050Z,99.90
2018-09-16T05:51:42.418Z,99.90
2018-09-16T05:54:11.849Z,99.90
2018-09-16T05:56:41.257Z,99.90
2018-09-16T05:59:10.749Z,99.90
2018-09-16T06:01:40.160Z,99.90
2018-09-16T06:04:09.528Z,99.90
2018-09-16T06:06:38.841Z,99.90
2018-09-16T06:09:10.823Z,99.90
2018-09-16T06:11:40.288Z,99.90
2018-09-16T06:14:09.589Z,99.90
2018-09-16T06:16:39.462Z,99.90
2018-09-16T06:19:09.221Z,99.90
2018-09-16T06:21:38.764Z,99.90
2018-09-16T06:24:08.252Z,99.90
2018-09-16T06:26:37.915Z,99.90
2018-09-16T06:29:07.230Z,99.90
2018-09-16T06:31:36.549Z,99.90
2018-09-16T06:34:05.918Z,99.90
2018-09-16T06:36:35.217Z,99.90
2018-09-16T06:39:07.131Z,99.90
2018-09-16T06:41:36.624Z,99.90
2018-09-16T06:44:06.249Z,99.90
2018-09-16T06:46:35.627Z,99.90
2018-09-16T06:49:05.445Z,99.90
2018-09-16T06:51:34.814Z,99.90
2018-09-16T06:54:04.212Z,99.90
2018-09-16T06:56:33.691Z,99.90
2018-09-16T06:59:04.036Z,99.90
2018-09-16T07:01:33.334Z,99.90
2018-09-16T07:04:02.679Z,99.90
2018-09-16T07:06:35.665Z,99.90
2018-09-16T07:09:09.494Z,99.90
2018-09-16T07:11:38.834Z,99.90
2018-09-16T07:14:08.377Z,99.90
2018-09-16T07:16:37.984Z,99.90
2018-09-16T07:19:08.137Z,99.90
2018-09-16T07:21:37.465Z,99.90
2018-09-16T07:24:07.212Z,99.90
2018-09-16T07:26:36.555Z,99.90
2018-09-16T07:29:05.924Z,99.90
2018-09-16T07:31:35.231Z,99.90
2018-09-16T07:34:04.561Z,99.90
2018-09-16T07:36:34.004Z,99.90
2018-09-16T07:39:04.062Z,99.90
2018-09-16T07:41:33.582Z,99.90
2018-09-16T07:44:02.934Z,99.90
2018-09-16T07:46:32.305Z,99.90
2018-09-16T07:49:01.614Z,99.90
2018-09-16T07:51:31.155Z,99.90
2018-09-16T07:54:00.522Z,99.90
2018-09-16T07:56:30.497Z,99.90
2018-09-16T07:58:59.840Z,99.90
2018-09-16T08:01:29.130Z,99.90
2018-09-16T08:03:58.478Z,99.90
2018-09-16T08:06:27.800Z,99.90
2018-09-16T08:08:57.287Z,99.90
2018-09-16T08:11:26.652Z,99.90
2018-09-16T08:13:55.950Z,99.90
2018-09-16T08:16:25.344Z,99.90
2018-09-16T08:18:54.995Z,99.90
2018-09-16T08:21:24.478Z,99.90
2018-09-16T08:23:53.936Z,99.90
2018-09-16T08:26:23.236Z,99.90
2018-09-16T08:28:52.677Z,99.90
2018-09-16T08:31:21.952Z,99.90
2018-09-16T08:33:51.431Z,99.90
2018-09-16T08:36:20.742Z,99.90
2018-09-16T08:38:50.045Z,99.90
2018-09-16T08:41:19.364Z,99.90
2018-09-16T08:43:48.766Z,99.90
2018-09-16T08:46:18.726Z,99.90
2018-09-16T08:48:48.285Z,99.90
2018-09-16T08:51:17.614Z,96.80
2018-09-16T08:53:46.952Z,95.50
2018-09-16T08:56:16.253Z,93.70
2018-09-16T08:58:45.673Z,92.90
2018-09-16T09:01:15.077Z,92.60
2018-09-16T09:03:44.361Z,94.50
2018-09-16T09:06:14.996Z,92.70
2018-09-16T09:08:44.547Z,92.50
2018-09-16T09:11:15.217Z,91.60
2018-09-16T09:13:44.748Z,87.80
2018-09-16T09:16:14.282Z,84.10
2018-09-16T09:18:43.639Z,87.40
2018-09-16T09:21:12.947Z,87.10
2018-09-16T09:23:42.660Z,90.50
2018-09-16T09:26:12.027Z,87.60
2018-09-16T09:28:41.720Z,89.70
2018-09-16T09:31:11.126Z,90.20
2018-09-16T09:33:40.692Z,85.70
2018-09-16T09:36:10.513Z,83.20
2018-09-16T09:38:40.028Z,83.00
2018-09-16T09:41:09.617Z,77.70
2018-09-16T09:43:38.944Z,80.20
2018-09-16T09:46:09.827Z,75.30
2018-09-16T09:48:39.213Z,80.60
2018-09-16T09:51:08.718Z,82.90
2018-09-16T09:53:38.069Z,86.80
2018-09-16T09:56:07.388Z,85.70
2018-09-16T09:58:36.725Z,81.80
2018-09-16T10:01:06.244Z,73.00
2018-09-16T10:03:35.691Z,71.50
2018-09-16T10:06:05.515Z,68.00
2018-09-16T10:08:34.940Z,70.70
2018-09-16T10:11:04.269Z,72.30
2018-09-16T10:13:33.597Z,72.20
2018-09-16T10:16:03.281Z,68.80
2018-09-16T10:18:32.892Z,63.60
2018-09-16T10:21:02.530Z,62.40
2018-09-16T10:23:31.983Z,58.90
2018-09-16T10:26:01.566Z,56.20
2018-09-16T10:28:31.007Z,59.80
2018-09-16T10:31:00.509Z,58.50
2018-09-16T10:33:29.946Z,54.60
2018-09-16T10:35:59.555Z,55.40
2018-09-16T10:38:28.923Z,55.10
2018-09-16T10:40:58.314Z,49.80
2018-09-16T10:43:28.051Z,51.50
2018-09-16T10:45:57.559Z,51.10
2018-09-16T10:48:26.951Z,51.10
2018-09-16T10:50:56.350Z,54.60
2018-09-16T10:53:25.744Z,53.00
2018-09-16T10:55:55.194Z,54.30
2018-09-16T10:58:24.597Z,47.80
2018-09-16T11:00:54.058Z,49.80
2018-09-16T11:03:23.576Z,51.00
2018-09-16T11:05:53.240Z,52.00
2018-09-16T11:08:22.663Z,50.00
2018-09-16T11:10:52.076Z,48.40
2018-09-16T11:13:21.511Z,48.00
2018-09-16T11:15:50.991Z,48.80
2018-09-16T11:18:20.396Z,48.00
2018-09-16T11:20:49.746Z,47.40
2018-09-16T11:23:19.138Z,48.20
2018-09-16T11:25:48.556Z,48.40
2018-09-16T11:28:17.877Z,47.40
2018-09-16T11:30:47.321Z,49.10
2018-09-16T11:33:16.621Z,47.60
2018-09-16T11:35:45.952Z,48.10
2018-09-16T11:38:15.250Z,45.70
2018-09-16T11:40:44.528Z,45.00
2018-09-16T11:43:13.956Z,43.80
2018-09-16T11:45:43.627Z,45.60
2018-09-16T11:48:13.235Z,43.80
2018-09-16T11:50:42.967Z,43.50
2018-09-16T11:53:12.383Z,43.30
2018-09-16T11:55:41.719Z,43.10
2018-09-16T11:58:11.106Z,41.20
2018-09-16T12:00:40.612Z,42.20
2018-09-16T12:03:09.930Z,45.80
2018-09-16T12:05:39.260Z,47.30
2018-09-16T12:08:08.605Z,43.50
2018-09-16T12:10:38.296Z,42.40
2018-09-16T12:13:07.710Z,40.20
2018-09-16T12:15:37.013Z,41.50
2018-09-16T12:18:06.456Z,40.70
2018-09-16T12:20:35.839Z,42.90
2018-09-16T12:23:05.492Z,42.20
2018-09-16T12:25:34.925Z,41.70
2018-09-16T12:28:04.332Z,42.50
2018-09-16T12:30:33.933Z,40.50
2018-09-16T12:33:03.475Z,38.80
2018-09-16T12:35:33.156Z,40.50
2018-09-16T12:38:02.805Z,39.40
2018-09-16T12:40:32.097Z,40.70
2018-09-16T12:43:01.621Z,38.40
2018-09-16T12:45:31.248Z,38.50
2018-09-16T12:48:00.553Z,38.20
2018-09-16T12:50:29.897Z,38.20
2018-09-16T12:52:59.487Z,38.10
2018-09-16T12:55:28.836Z,38.40
2018-09-16T12:57:58.145Z,40.30
2018-09-16T13:00:27.784Z,42.00
2018-09-16T13:02:57.185Z,40.00
2018-09-16T13:05:26.478Z,41.10
2018-09-16T13:07:55.782Z,40.80
2018-09-16T13:10:25.233Z,39.80
2018-09-16T13:12:54.608Z,38.40
2018-09-16T13:15:24.042Z,38.50
2018-09-16T13:17:53.410Z,36.90
2018-09-16T13:20:22.905Z,38.20
2018-09-16T13:22:52.341Z,37.40
2018-09-16T13:25:21.642Z,39.60
2018-09-16T13:27:50.946Z,37.30
2018-09-16T13:30:20.266Z,37.60
2018-09-16T13:32:49.653Z,37.90
2018-09-16T13:35:19.167Z,38.00
2018-09-16T13:37:48.521Z,39.70
2018-09-16T13:40:17.898Z,36.90
2018-09-16T13:42:47.189Z,38.90
2018-09-16T13:45:16.565Z,36.80
2018-09-16T13:47:45.931Z,38.40
2018-09-16T13:50:15.240Z,38.40
2018-09-16T13:52:44.584Z,38.20
2018-09-16T13:55:14.100Z,38.10
2018-09-16T13:57:43.602Z,37.40
2018-09-16T14:00:14.006Z,38.60
2018-09-16T14:02:44.139Z,37.30
2018-09-16T14:05:13.744Z,37.10
2018-09-16T14:07:43.162Z,37.10
2018-09-16T14:10:12.757Z,37.20
2018-09-16T14:12:42.201Z,37.10
2018-09-16T14:15:11.560Z,37.30
2018-09-16T14:17:41.060Z,38.10
2018-09-16T14:20:10.371Z,37.30
2018-09-16T14:22:39.798Z,37.20
2018-09-16T14:25:09.205Z,36.60
2018-09-16T14:27:38.510Z,35.20
2018-09-16T14:30:07.896Z,34.50
2018-09-16T14:32:37.278Z,34.70
2018-09-16T14:35:06.664Z,35.60
2018-09-16T14:37:36.097Z,36.10
2018-09-16T14:40:05.644Z,36.00
2018-09-16T14:42:34.993Z,35.90
2018-09-16T14:45:04.548Z,37.30
2018-09-16T14:47:33.889Z,36.20
2018-09-16T14:50:04.206Z,36.00
2018-09-16T14:52:33.523Z,36.50
2018-09-16T14:55:02.842Z,37.80
2018-09-16T14:57:32.247Z,37.80
2018-09-16T15:00:01.735Z,39.10
2018-09-16T15:02:31.256Z,37.90
2018-09-16T15:05:00.720Z,38.60
2018-09-16T15:07:30.144Z,38.30
2018-09-16T15:09:59.500Z,39.50
2018-09-16T15:12:28.864Z,38.70
2018-09-16T15:14:58.384Z,39.20
2018-09-16T15:17:27.842Z,39.60
2018-09-16T15:19:57.383Z,39.00
2018-09-16T15:22:26.817Z,39.60
2018-09-16T15:24:56.497Z,39.60
2018-09-16T15:27:26.102Z,39.40
2018-09-16T15:29:55.844Z,39.30
2018-09-16T15:32:25.393Z,39.00
2018-09-16T15:34:54.902Z,38.90
2018-09-16T15:37:24.240Z,39.10
2018-09-16T15:39:53.672Z,40.00
2018-09-16T15:42:22.934Z,39.80
2018-09-16T15:44:52.578Z,40.00
2018-09-16T15:47:21.877Z,40.50
2018-09-16T15:49:51.201Z,40.30
2018-09-16T15:52:20.519Z,40.00
2018-09-16T15:54:49.976Z,40.00
2018-09-16T15:57:19.957Z,38.60
2018-09-16T15:59:50.868Z,38.60
2018-09-16T16:02:20.687Z,39.30
2018-09-16T16:04:51.052Z,39.70
2018-09-16T16:07:20.779Z,40.10
2018-09-16T16:09:51.198Z,39.50
2018-09-16T16:12:20.635Z,40.00
2018-09-16T16:14:54.035Z,40.10
2018-09-16T16:17:29.928Z,41.00
2018-09-16T16:19:59.379Z,41.50
2018-09-16T16:22:28.819Z,42.00
2018-09-16T16:24:58.353Z,42.10
2018-09-16T16:27:27.783Z,42.00
2018-09-16T16:29:57.163Z,42.60
2018-09-16T16:32:26.509Z,42.50
2018-09-16T16:34:55.950Z,42.60
2018-09-16T16:37:25.680Z,42.20
2018-09-16T16:39:55.219Z,43.00
2018-09-16T16:42:24.917Z,43.40
2018-09-16T16:44:54.324Z,44.00
2018-09-16T16:47:23.767Z,44.60
2018-09-16T16:49:53.144Z,45.10
2018-09-16T16:52:23.600Z,45.20
2018-09-16T16:54:52.888Z,46.40
2018-09-16T16:57:22.327Z,46.50
2018-09-16T16:59:51.898Z,46.50
2018-09-16T17:02:21.373Z,47.20
2018-09-16T17:04:51.739Z,47.20
2018-09-16T17:07:21.133Z,47.60
2018-09-16T17:09:50.544Z,46.90
2018-09-16T17:12:19.933Z,47.60
2018-09-16T17:14:49.511Z,46.90
2018-09-16T17:17:18.967Z,48.40
2018-09-16T17:19:48.466Z,49.90
2018-09-16T17:22:17.911Z,51.40
2018-09-16T17:24:47.406Z,56.90
2018-09-16T17:27:16.961Z,59.80
2018-09-16T17:29:46.955Z,62.80
2018-09-16T17:32:16.394Z,64.30
2018-09-16T17:34:45.907Z,65.80
2018-09-16T17:37:15.411Z,68.90
2018-09-16T17:39:44.848Z,68.70
2018-09-16T17:42:14.343Z,72.50
2018-09-16T17:44:43.792Z,74.60
2018-09-16T17:47:13.367Z,77.20
2018-09-16T17:49:42.840Z,78.90
2018-09-16T17:52:12.236Z,80.30
2018-09-16T17:54:41.713Z,84.50
2018-09-16T17:57:11.220Z,85.90
2018-09-16T17:59:40.795Z,83.60
2018-09-16T18:02:10.087Z,81.90
2018-09-16T18:04:39.411Z,83.10
2018-09-16T18:07:08.645Z,85.30
2018-09-16T18:09:38.166Z,90.30
2018-09-16T18:12:08.014Z,91.30
2018-09-16T18:14:37.524Z,93.80
2018-09-16T18:17:07.185Z,95.50
2018-09-16T18:19:36.735Z,96.20
2018-09-16T18:22:06.419Z,96.30
2018-09-16T18:24:35.767Z,97.40
2018-09-16T18:27:05.216Z,98.20
2018-09-16T18:29:34.855Z,98.80
2018-09-16T18:32:04.163Z,99.30
2018-09-16T18:34:33.444Z,99.90
2018-09-16T18:37:02.940Z,99.90
2018-09-16T18:39:32.534Z,99.90
2018-09-16T18:42:01.974Z,99.90
2018-09-16T18:44:32.071Z,99.90
2018-09-16T18:47:01.894Z,99.90
2018-09-16T18:49:31.458Z,99.90
2018-09-16T18:52:00.893Z,99.90
2018-09-16T18:54:30.815Z,99.90
2018-09-16T18:57:00.089Z,99.90
2018-09-16T18:59:29.451Z,99.90
2018-09-16T19:01:58.786Z,99.90
2018-09-16T19:04:28.052Z,99.90
2018-09-16T19:06:57.358Z,99.90
2018-09-16T19:09:26.827Z,99.90
2018-09-16T19:11:56.493Z,99.90
2018-09-16T19:14:25.912Z,99.90
2018-09-16T19:16:55.517Z,99.90
2018-09-16T19:19:24.880Z,99.90
2018-09-16T19:21:54.366Z,99.90
2018-09-16T19:24:23.896Z,99.90
2018-09-16T19:26:53.402Z,99.90
2018-09-16T19:29:22.906Z,99.90
2018-09-16T19:31:52.340Z,99.90
2018-09-16T19:34:21.911Z,99.90
2018-09-16T19:36:51.501Z,99.90
2018-09-16T19:39:21.032Z,99.90
2018-09-16T19:41:50.908Z,99.90
2018-09-16T19:44:20.682Z,99.90
2018-09-16T19:46:50.054Z,99.90
2018-09-16T19:49:19.464Z,99.90
2018-09-16T19:51:48.825Z,99.90
2018-09-16T19:54:18.455Z,99.90
2018-09-16T19:56:48.320Z,99.90
2018-09-16T19:59:18.144Z,99.90
2018-09-16T20:01:47.690Z,99.90
2018-09-16T20:04:17.484Z,99.90
2018-09-16T20:06:46.911Z,99.90
2018-09-16T20:09:16.282Z,99.90
2018-09-16T20:11:45.717Z,99.90
2018-09-16T20:14:15.208Z,99.90
2018-09-16T20:16:44.668Z,99.90
2018-09-16T20:19:14.056Z,99.90
2018-09-16T20:21:43.388Z,99.90
2018-09-16T20:24:12.807Z,99.90
2018-09-16T20:26:42.166Z,99.90
2018-09-16T20:29:11.488Z,99.90
2018-09-16T20:31:40.840Z,99.90
2018-09-16T20:34:10.946Z,99.90
2018-09-16T20:36:40.293Z,99.90
2018-09-16T20:39:10.763Z,99.90
2018-09-16T20:41:40.178Z,99.90
2018-09-16T20:44:09.564Z,99.90
2018-09-16T20:46:38.928Z,99.90
2018-09-16T20:49:08.358Z,99.90
2018-09-16T20:51:37.669Z,99.90
2018-09-16T20:54:07.209Z,99.90
2018-09-16T20:56:36.518Z,99.90
2018-09-16T20:59:05.963Z,99.90
2018-09-16T21:01:35.281Z,99.90
2018-09-16T21:04:05.089Z,99.90
2018-09-16T21:06:34.525Z,99.90
2018-09-16T21:09:05.844Z,99.90
2018-09-16T21:11:35.626Z,99.90
2018-09-16T21:14:04.918Z,99.90
2018-09-16T21:16:34.317Z,99.90
2018-09-16T21:19:03.642Z,99.90
2018-09-16T21:21:32.974Z,99.90
2018-09-16T21:24:02.404Z,99.90
2018-09-16T21:26:32.000Z,99.90
2018-09-16T21:29:01.338Z,99.90
2018-09-16T21:31:31.130Z,99.90
2018-09-16T21:34:00.440Z,99.90
2018-09-16T21:36:30.115Z,99.90
2018-09-16T21:38:59.492Z,99.90
2018-09-16T21:41:28.970Z,99.90
2018-09-16T21:43:58.442Z,99.90
2018-09-16T21:46:27.847Z,99.90
2018-09-16T21:48:57.180Z,99.90
2018-09-16T21:51:26.479Z,99.90
2018-09-16T21:53:56.136Z,99.90
2018-09-16T21:56:25.551Z,99.90
2018-09-16T21:58:54.902Z,99.90
2018-09-16T22:01:24.186Z,99.90
2018-09-16T22:03:53.504Z,99.90
2018-09-16T22:06:22.836Z,99.90
2018-09-16T22:08:52.231Z,99.90
2018-09-16T22:11:21.627Z,99.90
2018-09-16T22:13:50.910Z,99.90
2018-09-16T22:16:20.233Z,99.90
2018-09-16T22:18:49.609Z,99.90
2018-09-16T22:21:18.939Z,99.90
2018-09-16T22:23:48.259Z,99.90
2018-09-16T22:26:17.594Z,99.90
2018-09-16T22:28:46.898Z,99.90
2018-09-16T22:31:16.341Z,99.90
2018-09-16T22:33:45.645Z,99.90
2018-09-16T22:36:15.182Z,99.90
2018-09-16T22:38:44.464Z,99.90
2018-09-16T22:41:13.873Z,99.90
2018-09-16T22:43:43.199Z,99.90
2018-09-16T22:46:12.478Z,99.90
2018-09-16T22:48:41.794Z,99.90
2018-09-16T22:51:11.239Z,99.90
2018-09-16T22:53:40.582Z,99.90
2018-09-16T22:56:10.616Z,99.90
2018-09-16T22:58:39.956Z,99.90
2018-09-16T23:01:09.690Z,99.90
2018-09-16T23:03:39.120Z,99.90
2018-09-16T23:06:08.481Z,99.90
2018-09-16T23:08:37.779Z,99.90
2018-09-16T23:11:07.079Z,99.90
2018-09-16T23:13:36.345Z,99.90
2018-09-16T23:16:05.640Z,99.90
2018-09-16T23:18:36.194Z,99.90
2018-09-16T23:21:05.563Z,99.90
2018-09-16T23:23:34.896Z,99.90
2018-09-16T23:26:04.437Z,99.90
2018-09-16T23:28:33.866Z,99.90
2018-09-16T23:31:03.272Z,99.90
2018-09-16T23:33:32.562Z,99.90
2018-09-16T23:36:01.901Z,99.90
2018-09-16T23:38:31.510Z,99.90
2018-09-16T23:41:00.809Z,99.90
2018-09-16T23:43:30.905Z,99.90
2018-09-16T23:46:00.205Z,99.90
2018-09-16T23:48:29.506Z,99.90
2018-09-16T23:50:58.933Z,99.90
2018-09-16T23:53:28.334Z,99.90
2018-09-16T23:55:57.754Z,99.90
2018-09-16T23:58:27.110Z,99.90
